BAW781 EGLL-ENGM
Flight info
| Callsign | BAW781 |
|---|---|
| Flight time | N/A |
| Altitude | 39000 |
| Route | BPK Q295 MATCH P144 SAMHO DCT LARGA DCT INBOB M604 DANKO DCT PIPEX DCT ULMUG DCT RIPAM |
| Aircraft | B772/H-SDE2E3FGHIJ5LORVWXY/LB1D1 |
Departure
| Time | 2026-05-04 14:21 |
|---|---|
| Airport | London Heathrow Airport (EGLL) |
Arrival
| Time | N/A |
|---|---|
| Airport | Oslo-Gardermoen International Airport (ENGM) |
| Time | Latitude | Longitude | Altitude | Speed | Heading |
|---|---|---|---|---|---|
| 2026-05-04 13:44 | 51.47340 | -0.44417 | 90 ft | 0 kts | 90° |
| 2026-05-04 14:08 | 51.47340 | -0.44420 | 91 ft | 2 kts | 90° |
| 2026-05-04 14:08 | 51.47340 | -0.44462 | 91 ft | 4 kts | 90° |
| 2026-05-04 14:09 | 51.47337 | -0.44537 | 92 ft | 4 kts | 55° |
| 2026-05-04 14:09 | 51.47318 | -0.44558 | 91 ft | 4 kts | 2° |
| 2026-05-04 14:10 | 51.47284 | -0.44558 | 91 ft | 0 kts | 360° |
| 2026-05-04 14:14 | 51.47287 | -0.44558 | 91 ft | 3 kts | 360° |
| 2026-05-04 14:14 | 51.47380 | -0.44560 | 91 ft | 7 kts | 359° |
| 2026-05-04 14:14 | 51.47430 | -0.44561 | 93 ft | 7 kts | 359° |
| 2026-05-04 14:15 | 51.47499 | -0.44483 | 93 ft | 7 kts | 80° |
| 2026-05-04 14:15 | 51.47505 | -0.44319 | 93 ft | 7 kts | 88° |
| 2026-05-04 14:16 | 51.47506 | -0.44155 | 94 ft | 7 kts | 90° |
| 2026-05-04 14:16 | 51.47506 | -0.44073 | 94 ft | 7 kts | 90° |
| 2026-05-04 14:17 | 51.47506 | -0.43848 | 93 ft | 13 kts | 92° |
| 2026-05-04 14:17 | 51.47466 | -0.43732 | 93 ft | 11 kts | 118° |
| 2026-05-04 14:17 | 51.47459 | -0.43678 | 91 ft | 0 kts | 93° |
| 2026-05-04 14:18 | 51.47458 | -0.43646 | 91 ft | 9 kts | 93° |
| 2026-05-04 14:18 | 51.47476 | -0.43322 | 94 ft | 16 kts | 53° |
| 2026-05-04 14:19 | 51.47680 | -0.43304 | 96 ft | 16 kts | 321° |
| 2026-05-04 14:19 | 51.47757 | -0.43432 | 94 ft | 16 kts | 297° |
| 2026-05-04 14:19 | 51.47765 | -0.43505 | 94 ft | 0 kts | 273° |
| 2026-05-04 14:20 | 51.47765 | -0.43508 | 94 ft | 7 kts | 273° |
| 2026-05-04 14:20 | 51.47766 | -0.44216 | 93 ft | 120 kts | 271° |
| 2026-05-04 14:20 | 51.47766 | -0.46003 | 536 ft | 178 kts | 266° |
| 2026-05-04 14:21 | 51.47687 | -0.49802 | 3501 ft | 168 kts | 270° |
| 2026-05-04 14:21 | 51.47663 | -0.51794 | 3948 ft | 192 kts | 269° |
| 2026-05-04 14:21 | 51.47716 | -0.54068 | 4202 ft | 217 kts | 282° |
| 2026-05-04 14:21 | 51.48265 | -0.56484 | 4483 ft | 245 kts | 295° |
| 2026-05-04 14:22 | 51.49072 | -0.59029 | 5041 ft | 262 kts | 297° |
| 2026-05-04 14:22 | 51.49929 | -0.61652 | 5764 ft | 267 kts | 296° |
| 2026-05-04 14:22 | 51.50933 | -0.64170 | 6091 ft | 273 kts | 315° |
| 2026-05-04 14:22 | 51.52595 | -0.65675 | 6946 ft | 279 kts | 343° |
| 2026-05-04 14:23 | 51.56353 | -0.64701 | 8793 ft | 288 kts | 37° |
| 2026-05-04 14:23 | 51.57729 | -0.62326 | 9586 ft | 295 kts | 54° |
| 2026-05-04 14:23 | 51.58917 | -0.59598 | 10372 ft | 302 kts | 55° |
| 2026-05-04 14:24 | 51.60167 | -0.56716 | 10683 ft | 329 kts | 55° |
| 2026-05-04 14:24 | 51.61543 | -0.53620 | 11179 ft | 347 kts | 54° |
| 2026-05-04 14:24 | 51.62919 | -0.50373 | 12030 ft | 355 kts | 60° |
| 2026-05-04 14:24 | 51.64087 | -0.46816 | 12962 ft | 362 kts | 64° |
| 2026-05-04 14:25 | 51.65172 | -0.43134 | 14007 ft | 367 kts | 65° |
| 2026-05-04 14:25 | 51.67382 | -0.35621 | 15989 ft | 374 kts | 65° |
| 2026-05-04 14:25 | 51.68528 | -0.31822 | 16931 ft | 379 kts | 65° |
| 2026-05-04 14:26 | 51.69698 | -0.27992 | 17865 ft | 384 kts | 65° |
| 2026-05-04 14:26 | 51.70889 | -0.24108 | 18734 ft | 389 kts | 65° |
| 2026-05-04 14:26 | 51.72104 | -0.20157 | 19540 ft | 395 kts | 65° |
| 2026-05-04 14:26 | 51.73327 | -0.16171 | 20338 ft | 400 kts | 65° |
| 2026-05-04 14:27 | 51.74565 | -0.12110 | 21141 ft | 405 kts | 66° |
| 2026-05-04 14:27 | 51.75455 | -0.07806 | 21884 ft | 408 kts | 82° |
| 2026-05-04 14:27 | 51.75789 | -0.03240 | 22636 ft | 413 kts | 86° |
| 2026-05-04 14:27 | 51.76075 | 0.01420 | 23340 ft | 420 kts | 85° |
| 2026-05-04 14:28 | 51.76405 | 0.06147 | 23980 ft | 428 kts | 85° |
| 2026-05-04 14:28 | 51.76779 | 0.10932 | 24687 ft | 431 kts | 84° |
| 2026-05-04 14:28 | 51.77173 | 0.15737 | 25437 ft | 434 kts | 84° |
| 2026-05-04 14:28 | 51.77574 | 0.20581 | 26125 ft | 434 kts | 83° |
| 2026-05-04 14:29 | 51.79798 | 0.29822 | 27133 ft | 454 kts | 57° |
| 2026-05-04 14:29 | 51.84326 | 0.36956 | 28399 ft | 460 kts | 36° |
| 2026-05-04 14:30 | 51.86915 | 0.40035 | 28919 ft | 465 kts | 37° |
| 2026-05-04 14:30 | 51.89451 | 0.43315 | 29376 ft | 470 kts | 40° |
| 2026-05-04 14:30 | 51.94293 | 0.50570 | 30299 ft | 478 kts | 45° |
| 2026-05-04 14:31 | 51.96666 | 0.54377 | 30728 ft | 481 kts | 45° |
| 2026-05-04 14:31 | 52.00646 | 0.60726 | 31432 ft | 484 kts | 44° |
| 2026-05-04 14:32 | 52.05891 | 0.67687 | 32201 ft | 489 kts | 34° |
| 2026-05-04 14:32 | 52.08692 | 0.70822 | 32638 ft | 489 kts | 34° |
| 2026-05-04 14:32 | 52.11511 | 0.73962 | 33005 ft | 491 kts | 34° |
| 2026-05-04 14:32 | 52.14331 | 0.77127 | 33298 ft | 494 kts | 34° |
| 2026-05-04 14:33 | 52.17158 | 0.80331 | 33571 ft | 497 kts | 35° |
| 2026-05-04 14:33 | 52.19993 | 0.83572 | 33895 ft | 498 kts | 35° |
| 2026-05-04 14:33 | 52.22819 | 0.86819 | 34282 ft | 497 kts | 35° |
| 2026-05-04 14:33 | 52.25639 | 0.90068 | 34666 ft | 495 kts | 35° |
| 2026-05-04 14:34 | 52.28450 | 0.93311 | 35047 ft | 494 kts | 36° |
| 2026-05-04 14:34 | 52.31253 | 0.96544 | 35440 ft | 492 kts | 36° |
| 2026-05-04 14:34 | 52.34043 | 0.99767 | 35802 ft | 492 kts | 35° |
| 2026-05-04 14:34 | 52.36814 | 1.02976 | 35951 ft | 496 kts | 36° |
| 2026-05-04 14:35 | 52.39663 | 1.06286 | 36228 ft | 496 kts | 36° |
| 2026-05-04 14:35 | 52.42479 | 1.09564 | 36622 ft | 495 kts | 36° |
| 2026-05-04 14:35 | 52.45240 | 1.12784 | 37005 ft | 493 kts | 36° |
| 2026-05-04 14:35 | 52.48033 | 1.16048 | 37358 ft | 493 kts | 36° |
| 2026-05-04 14:36 | 52.50821 | 1.19310 | 37679 ft | 493 kts | 36° |
| 2026-05-04 14:36 | 52.53609 | 1.22576 | 38034 ft | 492 kts | 36° |
| 2026-05-04 14:36 | 52.56391 | 1.25842 | 38376 ft | 491 kts | 36° |
| 2026-05-04 14:36 | 52.59171 | 1.29109 | 38681 ft | 490 kts | 36° |
| 2026-05-04 14:37 | 52.61948 | 1.32378 | 38897 ft | 491 kts | 36° |
| 2026-05-04 14:37 | 52.67534 | 1.38969 | 39017 ft | 495 kts | 36° |
| 2026-05-04 14:38 | 52.73100 | 1.45558 | 39042 ft | 491 kts | 36° |
| 2026-05-04 14:38 | 52.78618 | 1.52112 | 39039 ft | 487 kts | 36° |
| 2026-05-04 14:39 | 52.84107 | 1.58652 | 39051 ft | 486 kts | 36° |
| 2026-05-04 14:39 | 52.89609 | 1.65227 | 39116 ft | 491 kts | 36° |
| 2026-05-04 14:40 | 52.95156 | 1.71875 | 39511 ft | 492 kts | 36° |
| 2026-05-04 14:40 | 52.97922 | 1.75196 | 39757 ft | 491 kts | 36° |
| 2026-05-04 14:40 | 53.00688 | 1.78524 | 39977 ft | 491 kts | 36° |
| 2026-05-04 14:40 | 53.03451 | 1.81855 | 40184 ft | 491 kts | 36° |
| 2026-05-04 14:41 | 53.06213 | 1.85190 | 40382 ft | 491 kts | 36° |
| 2026-05-04 14:41 | 53.08953 | 1.88504 | 40588 ft | 491 kts | 36° |
| 2026-05-04 14:41 | 53.14472 | 1.95195 | 40938 ft | 492 kts | 36° |
| 2026-05-04 14:42 | 53.20027 | 2.01952 | 41030 ft | 495 kts | 36° |
| 2026-05-04 14:42 | 53.25568 | 2.08716 | 41038 ft | 492 kts | 35° |
| 2026-05-04 14:43 | 53.31077 | 2.15462 | 41035 ft | 490 kts | 35° |
| 2026-05-04 14:43 | 53.36578 | 2.22219 | 41042 ft | 490 kts | 36° |
| 2026-05-04 14:44 | 53.42069 | 2.28986 | 41037 ft | 490 kts | 36° |
| 2026-05-04 14:44 | 53.47562 | 2.35780 | 41041 ft | 491 kts | 36° |
| 2026-05-04 14:45 | 53.53065 | 2.42606 | 41041 ft | 492 kts | 36° |
| 2026-05-04 14:45 | 53.58563 | 2.49450 | 41036 ft | 492 kts | 36° |
| 2026-05-04 14:46 | 53.64068 | 2.56326 | 41036 ft | 492 kts | 36° |